sensor_id;sensor_type;location;lat;lon;timestamp;pressure;altitude;pressure_sealevel;temperature
74449;BMP280;62878;51.026;4.472;2022-09-28T00:00:06;-5962.97;;;15.75
74449;BMP280;62878;51.026;4.472;2022-09-28T00:02:31;-5960.94;;;15.63
74449;BMP280;62878;51.026;4.472;2022-09-28T00:04:58;-5959.84;;;15.57
74449;BMP280;62878;51.026;4.472;2022-09-28T00:07:24;-5957.59;;;15.43
74449;BMP280;62878;51.026;4.472;2022-09-28T00:09:49;-5957.34;;;15.42
74449;BMP280;62878;51.026;4.472;2022-09-28T00:12:15;-5962.72;;;15.74
74449;BMP280;62878;51.026;4.472;2022-09-28T00:14:40;-5962.56;;;15.73
74449;BMP280;62878;51.026;4.472;2022-09-28T00:17:08;-5962.38;;;15.72
74449;BMP280;62878;51.026;4.472;2022-09-28T00:19:33;-5961.03;;;15.64
74449;BMP280;62878;51.026;4.472;2022-09-28T00:21:58;-5962.31;;;15.71
74449;BMP280;62878;51.026;4.472;2022-09-28T00:24:24;-5956.22;;;15.35
74449;BMP280;62878;51.026;4.472;2022-09-28T00:26:54;-5960.28;;;15.59
74449;BMP280;62878;51.026;4.472;2022-09-28T00:29:26;-5959.44;;;15.54
74449;BMP280;62878;51.026;4.472;2022-09-28T00:32:04;-5962.03;;;15.70
74449;BMP280;62878;51.026;4.472;2022-09-28T00:34:40;-5962.22;;;15.71
74449;BMP280;62878;51.026;4.472;2022-09-28T00:37:08;-5961.19;;;15.65
74449;BMP280;62878;51.026;4.472;2022-09-28T00:39:34;-5962.22;;;15.71
74449;BMP280;62878;51.026;4.472;2022-09-28T00:42:01;-5960.88;;;15.63
74449;BMP280;62878;51.026;4.472;2022-09-28T00:44:48;-5961.97;;;15.69
74449;BMP280;62878;51.026;4.472;2022-09-28T00:47:36;-5961.72;;;15.68
74449;BMP280;62878;51.026;4.472;2022-09-28T00:50:14;-5961.47;;;15.66
74449;BMP280;62878;51.026;4.472;2022-09-28T00:55:13;-5961.97;;;15.69
74449;BMP280;62878;51.026;4.472;2022-09-28T00:57:44;-5961.78;;;15.68
74449;BMP280;62878;51.026;4.472;2022-09-28T01:00:11;-5961.53;;;15.67
74449;BMP280;62878;51.026;4.472;2022-09-28T01:02:37;-5961.19;;;15.65
74449;BMP280;62878;51.026;4.472;2022-09-28T01:05:04;-5961.72;;;15.68
74449;BMP280;62878;51.026;4.472;2022-09-28T01:07:32;-5959.69;;;15.56
74449;BMP280;62878;51.026;4.472;2022-09-28T01:09:58;-5954.88;;;15.27
74449;BMP280;62878;51.026;4.472;2022-09-28T01:12:24;-5957.66;;;15.44
74449;BMP280;62878;51.026;4.472;2022-09-28T01:14:51;-5958.16;;;15.47
74449;BMP280;62878;51.026;4.472;2022-09-28T01:17:30;-5960.38;;;15.60
74449;BMP280;62878;51.026;4.472;2022-09-28T01:28:59;-5957.50;;;15.43
74449;BMP280;62878;51.026;4.472;2022-09-28T01:31:31;-5954.63;;;15.25
74449;BMP280;62878;51.026;4.472;2022-09-28T01:34:03;-5961.13;;;15.64
74449;BMP280;62878;51.026;4.472;2022-09-28T01:36:37;-5961.38;;;15.66
74449;BMP280;62878;51.026;4.472;2022-09-28T01:39:10;-5951.78;;;15.08
74449;BMP280;62878;51.026;4.472;2022-09-28T01:41:38;-5960.44;;;15.60
74449;BMP280;62878;51.026;4.472;2022-09-28T01:44:07;-5961.38;;;15.66
74449;BMP280;62878;51.026;4.472;2022-09-28T01:46:40;-5961.38;;;15.66
74449;BMP280;62878;51.026;4.472;2022-09-28T01:54:26;-5961.13;;;15.64
74449;BMP280;62878;51.026;4.472;2022-09-28T01:56:57;-5957.75;;;15.44
74449;BMP280;62878;51.026;4.472;2022-09-28T01:59:27;-5959.84;;;15.57
74449;BMP280;62878;51.026;4.472;2022-09-28T02:02:15;-5961.13;;;15.64
74449;BMP280;62878;51.026;4.472;2022-09-28T02:04:49;-5960.19;;;15.59
74449;BMP280;62878;51.026;4.472;2022-09-28T02:07:23;-5956.66;;;15.38
74449;BMP280;62878;51.026;4.472;2022-09-28T02:09:57;-5959.94;;;15.57
74449;BMP280;62878;51.026;4.472;2022-09-28T02:15:09;-5960.69;;;15.62
74449;BMP280;62878;51.026;4.472;2022-09-28T02:17:36;-5960.88;;;15.63
74449;BMP280;62878;51.026;4.472;2022-09-28T02:20:03;-5959.78;;;15.56
74449;BMP280;62878;51.026;4.472;2022-09-28T02:22:45;-5960.69;;;15.62
74449;BMP280;62878;51.026;4.472;2022-09-28T02:25:29;-5960.78;;;15.62
74449;BMP280;62878;51.026;4.472;2022-09-28T02:28:05;-5960.78;;;15.62
74449;BMP280;62878;51.026;4.472;2022-09-28T02:30:32;-5960.69;;;15.62
74449;BMP280;62878;51.026;4.472;2022-09-28T02:33:12;-5960.63;;;15.61
74449;BMP280;62878;51.026;4.472;2022-09-28T02:35:39;-5957.91;;;15.45
74449;BMP280;62878;51.026;4.472;2022-09-28T02:38:05;-5960.78;;;15.62
74449;BMP280;62878;51.026;4.472;2022-09-28T02:40:32;-5960.19;;;15.59
74449;BMP280;62878;51.026;4.472;2022-09-28T02:43:21;-5960.63;;;15.61
74449;BMP280;62878;51.026;4.472;2022-09-28T02:55:14;-5960.19;;;15.59
74449;BMP280;62878;51.026;4.472;2022-09-28T02:57:46;-5959.94;;;15.57
74449;BMP280;62878;51.026;4.472;2022-09-28T03:00:19;-5960.28;;;15.59
74449;BMP280;62878;51.026;4.472;2022-09-28T03:02:58;-5960.19;;;15.59
74449;BMP280;62878;51.026;4.472;2022-09-28T03:05:42;-5957.84;;;15.45
74449;BMP280;62878;51.026;4.472;2022-09-28T03:08:30;-5960.28;;;15.59
74449;BMP280;62878;51.026;4.472;2022-09-28T03:11:02;-5959.09;;;15.52
74449;BMP280;62878;51.026;4.472;2022-09-28T03:13:28;-5956.91;;;15.39
74449;BMP280;62878;51.026;4.472;2022-09-28T03:16:08;-5959.19;;;15.53
74449;BMP280;62878;51.026;4.472;2022-09-28T03:18:33;-5956.16;;;15.34
74449;BMP280;62878;51.026;4.472;2022-09-28T03:20:59;-5960.19;;;15.59
74449;BMP280;62878;51.026;4.472;2022-09-28T03:23:25;-5949.50;;;14.95
74449;BMP280;62878;51.026;4.472;2022-09-28T03:25:51;-5960.03;;;15.58
74449;BMP280;62878;51.026;4.472;2022-09-28T03:28:17;-5955.81;;;15.32
74449;BMP280;62878;51.026;4.472;2022-09-28T03:30:42;-5959.78;;;15.56
74449;BMP280;62878;51.026;4.472;2022-09-28T03:33:07;-5959.94;;;15.57
74449;BMP280;62878;51.026;4.472;2022-09-28T03:35:32;-5959.78;;;15.56
74449;BMP280;62878;51.026;4.472;2022-09-28T03:37:58;-5955.81;;;15.32
74449;BMP280;62878;51.026;4.472;2022-09-28T03:40:23;-5959.44;;;15.54
74449;BMP280;62878;51.026;4.472;2022-09-28T03:42:48;-5959.59;;;15.55
74449;BMP280;62878;51.026;4.472;2022-09-28T03:45:15;-5953.72;;;15.20
74449;BMP280;62878;51.026;4.472;2022-09-28T03:47:45;-5953.78;;;15.20
74449;BMP280;62878;51.026;4.472;2022-09-28T03:50:10;-5955.22;;;15.29
74449;BMP280;62878;51.026;4.472;2022-09-28T03:52:35;-5959.44;;;15.54
74449;BMP280;62878;51.026;4.472;2022-09-28T03:55:01;-5958.00;;;15.46
74449;BMP280;62878;51.026;4.472;2022-09-28T03:57:28;-5959.34;;;15.54
74449;BMP280;62878;51.026;4.472;2022-09-28T03:59:53;-5958.44;;;15.48
74449;BMP280;62878;51.026;4.472;2022-09-28T04:02:18;-5958.34;;;15.48
74449;BMP280;62878;51.026;4.472;2022-09-28T04:04:43;-5959.00;;;15.52
74449;BMP280;62878;51.026;4.472;2022-09-28T04:07:09;-5952.03;;;15.10
74449;BMP280;62878;51.026;4.472;2022-09-28T04:09:34;-5959.44;;;15.54
74449;BMP280;62878;51.026;4.472;2022-09-28T04:12:00;-5955.66;;;15.31
74449;BMP280;62878;51.026;4.472;2022-09-28T04:14:25;-5960.38;;;15.60
74449;BMP280;62878;51.026;4.472;2022-09-28T04:16:51;-5959.19;;;15.53
74449;BMP280;62878;51.026;4.472;2022-09-28T04:19:19;-5962.72;;;15.74
74449;BMP280;62878;51.026;4.472;2022-09-28T04:21:44;-5959.44;;;15.54
74449;BMP280;62878;51.026;4.472;2022-09-28T04:24:10;-5963.56;;;15.79
74449;BMP280;62878;51.026;4.472;2022-09-28T04:26:35;-5963.72;;;15.80
74449;BMP280;62878;51.026;4.472;2022-09-28T04:29:02;-5962.03;;;15.70
74449;BMP280;62878;51.026;4.472;2022-09-28T04:31:51;-5961.97;;;15.69
74449;BMP280;62878;51.026;4.472;2022-09-28T04:34:21;-5959.09;;;15.52
74449;BMP280;62878;51.026;4.472;2022-09-28T04:36:47;-5964.66;;;15.85
74449;BMP280;62878;51.026;4.472;2022-09-28T04:39:13;-5964.66;;;15.85
74449;BMP280;62878;51.026;4.472;2022-09-28T04:41:40;-5964.81;;;15.87
74449;BMP280;62878;51.026;4.472;2022-09-28T04:44:05;-5964.25;;;15.83
74449;BMP280;62878;51.026;4.472;2022-09-28T04:46:31;-5962.22;;;15.71
74449;BMP280;62878;51.026;4.472;2022-09-28T04:48:56;-5957.16;;;15.41
74449;BMP280;62878;51.026;4.472;2022-09-28T04:51:22;-5962.56;;;15.73
74449;BMP280;62878;51.026;4.472;2022-09-28T04:53:47;-5959.53;;;15.55
74449;BMP280;62878;51.026;4.472;2022-09-28T04:56:14;-5964.16;;;15.82
74449;BMP280;62878;51.026;4.472;2022-09-28T04:58:46;-5964.16;;;15.82
74449;BMP280;62878;51.026;4.472;2022-09-28T05:01:14;-5965.41;;;15.90
74449;BMP280;62878;51.026;4.472;2022-09-28T05:03:40;-5964.31;;;15.83
74449;BMP280;62878;51.026;4.472;2022-09-28T05:06:06;-5965.75;;;15.92
74449;BMP280;62878;51.026;4.472;2022-09-28T05:08:32;-5965.59;;;15.91
74449;BMP280;62878;51.026;4.472;2022-09-28T05:11:01;-5956.81;;;15.39
74449;BMP280;62878;51.026;4.472;2022-09-28T05:13:29;-5956.06;;;15.34
74449;BMP280;62878;51.026;4.472;2022-09-28T05:15:56;-5965.59;;;15.91
74449;BMP280;62878;51.026;4.472;2022-09-28T05:18:21;-5966.09;;;15.94
74449;BMP280;62878;51.026;4.472;2022-09-28T05:20:47;-5964.75;;;15.86
74449;BMP280;62878;51.026;4.472;2022-09-28T05:23:12;-5961.38;;;15.66
74449;BMP280;62878;51.026;4.472;2022-09-28T05:25:39;-5965.91;;;15.93
74449;BMP280;62878;51.026;4.472;2022-09-28T05:28:05;-5964.41;;;15.84
74449;BMP280;62878;51.026;4.472;2022-09-28T05:30:31;-5965.00;;;15.88
74449;BMP280;62878;51.026;4.472;2022-09-28T05:32:59;-5965.59;;;15.91
74449;BMP280;62878;51.026;4.472;2022-09-28T05:35:25;-5964.56;;;15.85
74449;BMP280;62878;51.026;4.472;2022-09-28T05:37:50;-5965.59;;;15.91
74449;BMP280;62878;51.026;4.472;2022-09-28T05:40:16;-5965.91;;;15.93
74449;BMP280;62878;51.026;4.472;2022-09-28T05:42:41;-5965.84;;;15.93
74449;BMP280;62878;51.026;4.472;2022-09-28T05:45:08;-5965.84;;;15.93
74449;BMP280;62878;51.026;4.472;2022-09-28T05:47:38;-5960.53;;;15.61
74449;BMP280;62878;51.026;4.472;2022-09-28T05:50:07;-5960.03;;;15.58
74449;BMP280;62878;51.026;4.472;2022-09-28T05:52:33;-5965.59;;;15.91
74449;BMP280;62878;51.026;4.472;2022-09-28T05:54:58;-5961.63;;;15.67
74449;BMP280;62878;51.026;4.472;2022-09-28T05:57:23;-5965.41;;;15.90
74449;BMP280;62878;51.026;4.472;2022-09-28T05:59:48;-5960.38;;;15.60
74449;BMP280;62878;51.026;4.472;2022-09-28T06:02:14;-5965.59;;;15.91
74449;BMP280;62878;51.026;4.472;2022-09-28T06:04:40;-5961.72;;;15.68
74449;BMP280;62878;51.026;4.472;2022-09-28T06:07:06;-5960.09;;;15.58
74449;BMP280;62878;51.026;4.472;2022-09-28T06:09:31;-5965.59;;;15.91
74449;BMP280;62878;51.026;4.472;2022-09-28T06:11:58;-5963.91;;;15.81
74449;BMP280;62878;51.026;4.472;2022-09-28T06:14:24;-5965.66;;;15.92
74449;BMP280;62878;51.026;4.472;2022-09-28T06:16:50;-5964.31;;;15.83
74449;BMP280;62878;51.026;4.472;2022-09-28T06:19:15;-5965.59;;;15.91
74449;BMP280;62878;51.026;4.472;2022-09-28T06:21:41;-5962.56;;;15.73
74449;BMP280;62878;51.026;4.472;2022-09-28T06:24:07;-5963.41;;;15.78
74449;BMP280;62878;51.026;4.472;2022-09-28T06:26:32;-5965.59;;;15.91
74449;BMP280;62878;51.026;4.472;2022-09-28T06:28:57;-5952.53;;;15.13
74449;BMP280;62878;51.026;4.472;2022-09-28T06:31:24;-5963.81;;;15.80
74449;BMP280;62878;51.026;4.472;2022-09-28T06:33:50;-5965.59;;;15.91
74449;BMP280;62878;51.026;4.472;2022-09-28T06:36:16;-5965.59;;;15.91
74449;BMP280;62878;51.026;4.472;2022-09-28T06:38:42;-5965.84;;;15.93
74449;BMP280;62878;51.026;4.472;2022-09-28T06:41:09;-5963.56;;;15.79
74449;BMP280;62878;51.026;4.472;2022-09-28T06:43:35;-5964.75;;;15.86
74449;BMP280;62878;51.026;4.472;2022-09-28T06:46:01;-5961.72;;;15.68
74449;BMP280;62878;51.026;4.472;2022-09-28T06:48:26;-5965.75;;;15.92
74449;BMP280;62878;51.026;4.472;2022-09-28T06:50:52;-5965.75;;;15.92
74449;BMP280;62878;51.026;4.472;2022-09-28T06:53:18;-5965.59;;;15.91
74449;BMP280;62878;51.026;4.472;2022-09-28T06:55:46;-5965.75;;;15.92
74449;BMP280;62878;51.026;4.472;2022-09-28T06:58:16;-5965.59;;;15.91
74449;BMP280;62878;51.026;4.472;2022-09-28T07:00:44;-5965.84;;;15.93
74449;BMP280;62878;51.026;4.472;2022-09-28T07:03:13;-5963.72;;;15.80
74449;BMP280;62878;51.026;4.472;2022-09-28T07:05:44;-5965.91;;;15.93
74449;BMP280;62878;51.026;4.472;2022-09-28T07:08:10;-5965.91;;;15.93
74449;BMP280;62878;51.026;4.472;2022-09-28T07:10:44;-5965.75;;;15.92
74449;BMP280;62878;51.026;4.472;2022-09-28T07:13:11;-5956.00;;;15.33
74449;BMP280;62878;51.026;4.472;2022-09-28T07:15:37;-5966.50;;;15.97
74449;BMP280;62878;51.026;4.472;2022-09-28T07:18:05;-5966.34;;;15.96
74449;BMP280;62878;51.026;4.472;2022-09-28T07:20:35;-5962.88;;;15.75
74449;BMP280;62878;51.026;4.472;2022-09-28T07:23:05;-5966.75;;;15.98
74449;BMP280;62878;51.026;4.472;2022-09-28T07:25:32;-5966.69;;;15.98
74449;BMP280;62878;51.026;4.472;2022-09-28T07:28:02;-5963.13;;;15.76
74449;BMP280;62878;51.026;4.472;2022-09-28T07:30:30;-5948.16;;;14.87
74449;BMP280;62878;51.026;4.472;2022-09-28T07:32:57;-5951.09;;;15.04
74449;BMP280;62878;51.026;4.472;2022-09-28T07:35:22;-5947.31;;;14.81
74449;BMP280;62878;51.026;4.472;2022-09-28T07:37:56;-5959.94;;;15.57
74449;BMP280;62878;51.026;4.472;2022-09-28T07:40:23;-5961.88;;;15.69
74449;BMP280;62878;51.026;4.472;2022-09-28T07:43:07;-5960.88;;;15.63
74449;BMP280;62878;51.026;4.472;2022-09-28T07:45:32;-5963.56;;;15.79
74449;BMP280;62878;51.026;4.472;2022-09-28T07:48:00;-5963.91;;;15.81
74449;BMP280;62878;51.026;4.472;2022-09-28T07:50:37;-5956.50;;;15.37
74449;BMP280;62878;51.026;4.472;2022-09-28T07:53:03;-5949.25;;;14.93
74449;BMP280;62878;51.026;4.472;2022-09-28T07:55:29;-5955.41;;;15.30
74449;BMP280;62878;51.026;4.472;2022-09-28T07:57:55;-5959.94;;;15.57
74449;BMP280;62878;51.026;4.472;2022-09-28T08:00:28;-5956.00;;;15.33
74449;BMP280;62878;51.026;4.472;2022-09-28T08:03:00;-5961.78;;;15.68
74449;BMP280;62878;51.026;4.472;2022-09-28T08:05:27;-5962.97;;;15.75
74449;BMP280;62878;51.026;4.472;2022-09-28T08:08:14;-5964.31;;;15.83
74449;BMP280;62878;51.026;4.472;2022-09-28T08:10:44;-5951.03;;;15.04
74449;BMP280;62878;51.026;4.472;2022-09-28T08:13:09;-5950.00;;;14.98
74449;BMP280;62878;51.026;4.472;2022-09-28T08:15:34;-5957.50;;;15.43
74449;BMP280;62878;51.026;4.472;2022-09-28T08:18:03;-5960.63;;;15.61
74449;BMP280;62878;51.026;4.472;2022-09-28T08:20:30;-5960.69;;;15.62
74449;BMP280;62878;51.026;4.472;2022-09-28T08:23:14;-5962.56;;;15.73
74449;BMP280;62878;51.026;4.472;2022-09-28T08:25:39;-5963.06;;;15.76
74449;BMP280;62878;51.026;4.472;2022-09-28T08:28:05;-5962.97;;;15.75
74449;BMP280;62878;51.026;4.472;2022-09-28T08:30:33;-5959.59;;;15.55
74449;BMP280;62878;51.026;4.472;2022-09-28T08:32:59;-5963.56;;;15.79
74449;BMP280;62878;51.026;4.472;2022-09-28T08:35:24;-5965.59;;;15.91
74449;BMP280;62878;51.026;4.472;2022-09-28T08:37:51;-5964.56;;;15.85
74449;BMP280;62878;51.026;4.472;2022-09-28T08:40:24;-5965.66;;;15.92
74449;BMP280;62878;51.026;4.472;2022-09-28T08:42:55;-5965.59;;;15.91
74449;BMP280;62878;51.026;4.472;2022-09-28T08:45:28;-5962.88;;;15.75
74449;BMP280;62878;51.026;4.472;2022-09-28T08:48:00;-5965.75;;;15.92
74449;BMP280;62878;51.026;4.472;2022-09-28T08:50:56;-5965.84;;;15.93
74449;BMP280;62878;51.026;4.472;2022-09-28T08:56:47;-5964.91;;;15.87
74449;BMP280;62878;51.026;4.472;2022-09-28T08:59:24;-5964.56;;;15.85
74449;BMP280;62878;51.026;4.472;2022-09-28T09:02:01;-5963.13;;;15.76
74449;BMP280;62878;51.026;4.472;2022-09-28T09:04:28;-5966.09;;;15.94
74449;BMP280;62878;51.026;4.472;2022-09-28T09:07:13;-5966.25;;;15.95
74449;BMP280;62878;51.026;4.472;2022-09-28T09:18:16;-5964.91;;;15.87
74449;BMP280;62878;51.026;4.472;2022-09-28T09:21:04;-5963.72;;;15.80
74449;BMP280;62878;51.026;4.472;2022-09-28T09:23:50;-5966.50;;;15.97
74449;BMP280;62878;51.026;4.472;2022-09-28T09:26:21;-5965.59;;;15.91
74449;BMP280;62878;51.026;4.472;2022-09-28T09:35:00;-5966.00;;;15.94
74449;BMP280;62878;51.026;4.472;2022-09-28T09:40:31;-5962.88;;;15.75
74449;BMP280;62878;51.026;4.472;2022-09-28T09:43:39;-5964.06;;;15.82
74449;BMP280;62878;51.026;4.472;2022-09-28T09:46:18;-5967.19;;;16.01
74449;BMP280;62878;51.026;4.472;2022-09-28T09:49:22;-5967.34;;;16.02
74449;BMP280;62878;51.026;4.472;2022-09-28T09:52:04;-5967.34;;;16.02
74449;BMP280;62878;51.026;4.472;2022-09-28T09:54:39;-5968.44;;;16.08
74449;BMP280;62878;51.026;4.472;2022-09-28T09:59:40;-5968.94;;;16.11
74449;BMP280;62878;51.026;4.472;2022-09-28T10:02:33;-5964.25;;;15.83
74449;BMP280;62878;51.026;4.472;2022-09-28T10:08:13;-5960.44;;;15.60
74449;BMP280;62878;51.026;4.472;2022-09-28T10:10:53;-5947.16;;;14.80
74449;BMP280;62878;51.026;4.472;2022-09-28T10:13:20;-5943.19;;;14.57
74449;BMP280;62878;51.026;4.472;2022-09-28T10:15:45;-5957.75;;;15.44
74449;BMP280;62878;51.026;4.472;2022-09-28T10:18:13;-5965.50;;;15.91
74449;BMP280;62878;51.026;4.472;2022-09-28T10:20:41;-5969.63;;;16.15
74449;BMP280;62878;51.026;4.472;2022-09-28T10:23:35;-5972.56;;;16.33
74449;BMP280;62878;51.026;4.472;2022-09-28T10:26:04;-5974.59;;;16.45
74449;BMP280;62878;51.026;4.472;2022-09-28T10:28:39;-5975.84;;;16.53
74449;BMP280;62878;51.026;4.472;2022-09-28T10:31:32;-5977.03;;;16.60
74449;BMP280;62878;51.026;4.472;2022-09-28T10:34:01;-5977.94;;;16.65
74449;BMP280;62878;51.026;4.472;2022-09-28T10:36:27;-5975.69;;;16.52
74449;BMP280;62878;51.026;4.472;2022-09-28T10:38:52;-5980.66;;;16.81
74449;BMP280;62878;51.026;4.472;2022-09-28T10:41:18;-5980.56;;;16.81
74449;BMP280;62878;51.026;4.472;2022-09-28T10:43:52;-5976.09;;;16.54
74449;BMP280;62878;51.026;4.472;2022-09-28T10:46:31;-5970.63;;;16.21
74449;BMP280;62878;51.026;4.472;2022-09-28T10:49:01;-5972.16;;;16.30
74449;BMP280;62878;51.026;4.472;2022-09-28T10:51:46;-5980.06;;;16.78
74449;BMP280;62878;51.026;4.472;2022-09-28T10:54:17;-5980.06;;;16.78
74449;BMP280;62878;51.026;4.472;2022-09-28T10:56:45;-5979.31;;;16.73
74449;BMP280;62878;51.026;4.472;2022-09-28T11:02:06;-5980.06;;;16.78
74449;BMP280;62878;51.026;4.472;2022-09-28T11:04:39;-5977.78;;;16.64
74449;BMP280;62878;51.026;4.472;2022-09-28T11:07:16;-5974.75;;;16.46
74449;BMP280;62878;51.026;4.472;2022-09-28T11:09:46;-5983.25;;;16.97
74449;BMP280;62878;51.026;4.472;2022-09-28T11:12:19;-5981.66;;;16.88
74449;BMP280;62878;51.026;4.472;2022-09-28T11:14:54;-5977.38;;;16.62
74449;BMP280;62878;51.026;4.472;2022-09-28T11:17:35;-5987.38;;;17.22
74449;BMP280;62878;51.026;4.472;2022-09-28T11:20:28;-5985.78;;;17.12
74449;BMP280;62878;51.026;4.472;2022-09-28T11:22:56;-5990.75;;;17.42
74449;BMP280;62878;51.026;4.472;2022-09-28T11:25:25;-5993.84;;;17.61
74449;BMP280;62878;51.026;4.472;2022-09-28T11:32:47;-5992.19;;;17.51
74449;BMP280;62878;51.026;4.472;2022-09-28T11:35:19;-5994.78;;;17.66
74449;BMP280;62878;51.026;4.472;2022-09-28T11:38:02;-5994.09;;;17.62
74449;BMP280;62878;51.026;4.472;2022-09-28T11:48:54;-5984.94;;;17.07
74449;BMP280;62878;51.026;4.472;2022-09-28T11:51:30;-5989.72;;;17.36
74449;BMP280;62878;51.026;4.472;2022-09-28T11:57:01;-5987.78;;;17.24
74449;BMP280;62878;51.026;4.472;2022-09-28T11:59:41;-5994.03;;;17.62
74449;BMP280;62878;51.026;4.472;2022-09-28T12:02:20;-5993.84;;;17.61
74449;BMP280;62878;51.026;4.472;2022-09-28T12:07:36;-5990.25;;;17.39
74449;BMP280;62878;51.026;4.472;2022-09-28T12:12:59;-5993.19;;;17.57
74449;BMP280;62878;51.026;4.472;2022-09-28T12:15:47;-5985.28;;;17.09
74449;BMP280;62878;51.026;4.472;2022-09-28T12:23:56;-5993.84;;;17.61
74449;BMP280;62878;51.026;4.472;2022-09-28T12:26:31;-5979.06;;;16.72
74449;BMP280;62878;51.026;4.472;2022-09-28T12:29:01;-5992.69;;;17.54
74449;BMP280;62878;51.026;4.472;2022-09-28T12:34:21;-5971.13;;;16.24
74449;BMP280;62878;51.026;4.472;2022-09-28T12:40:20;-5983.94;;;17.01
74449;BMP280;62878;51.026;4.472;2022-09-28T12:45:36;-5987.56;;;17.23
74449;BMP280;62878;51.026;4.472;2022-09-28T12:54:21;-5988.06;;;17.26
74449;BMP280;62878;51.026;4.472;2022-09-28T12:56:59;-5987.28;;;17.21
74449;BMP280;62878;51.026;4.472;2022-09-28T12:59:30;-5988.81;;;17.30
74449;BMP280;62878;51.026;4.472;2022-09-28T13:02:12;-5989.16;;;17.32
74449;BMP280;62878;51.026;4.472;2022-09-28T13:10:21;-5989.66;;;17.35
74449;BMP280;62878;51.026;4.472;2022-09-28T13:13:11;-5990.25;;;17.39
74449;BMP280;62878;51.026;4.472;2022-09-28T13:16:03;-5991.16;;;17.45
74449;BMP280;62878;51.026;4.472;2022-09-28T13:18:36;-5991.41;;;17.46
74449;BMP280;62878;51.026;4.472;2022-09-28T13:21:08;-5989.31;;;17.33
74449;BMP280;62878;51.026;4.472;2022-09-28T13:23:42;-5991.66;;;17.48
74449;BMP280;62878;51.026;4.472;2022-09-28T13:28:38;-5989.16;;;17.32
74449;BMP280;62878;51.026;4.472;2022-09-28T13:31:05;-5991.25;;;17.45
74449;BMP280;62878;51.026;4.472;2022-09-28T13:33:34;-5987.78;;;17.24
74449;BMP280;62878;51.026;4.472;2022-09-28T13:36:02;-5986.19;;;17.15
74449;BMP280;62878;51.026;4.472;2022-09-28T13:38:38;-5990.84;;;17.43
74449;BMP280;62878;51.026;4.472;2022-09-28T13:41:15;-5990.06;;;17.38
74449;BMP280;62878;51.026;4.472;2022-09-28T13:44:04;-5990.50;;;17.41
74449;BMP280;62878;51.026;4.472;2022-09-28T13:49:41;-5988.38;;;17.28
74449;BMP280;62878;51.026;4.472;2022-09-28T13:55:35;-5990.50;;;17.41
74449;BMP280;62878;51.026;4.472;2022-09-28T13:58:30;-5990.91;;;17.43
74449;BMP280;62878;51.026;4.472;2022-09-28T14:01:16;-5970.28;;;16.19
74449;BMP280;62878;51.026;4.472;2022-09-28T14:06:35;-5974.16;;;16.43
74449;BMP280;62878;51.026;4.472;2022-09-28T14:11:53;-5982.25;;;16.91
74449;BMP280;62878;51.026;4.472;2022-09-28T14:16:59;-5988.22;;;17.27
74449;BMP280;62878;51.026;4.472;2022-09-28T14:19:49;-5988.31;;;17.27
74449;BMP280;62878;51.026;4.472;2022-09-28T14:25:41;-5990.16;;;17.38
74449;BMP280;62878;51.026;4.472;2022-09-28T14:33:35;-5989.81;;;17.36
74449;BMP280;62878;51.026;4.472;2022-09-28T14:36:21;-5989.56;;;17.35
74449;BMP280;62878;51.026;4.472;2022-09-28T14:39:24;-5985.44;;;17.10
74449;BMP280;62878;51.026;4.472;2022-09-28T14:42:15;-5989.66;;;17.35
74449;BMP280;62878;51.026;4.472;2022-09-28T14:45:16;-5989.72;;;17.36
74449;BMP280;62878;51.026;4.472;2022-09-28T14:48:01;-5989.41;;;17.34
74449;BMP280;62878;51.026;4.472;2022-09-28T14:50:28;-5987.97;;;17.25
74449;BMP280;62878;51.026;4.472;2022-09-28T14:53:21;-5986.03;;;17.14
74449;BMP280;62878;51.026;4.472;2022-09-28T14:55:57;-5985.34;;;17.10
74449;BMP280;62878;51.026;4.472;2022-09-28T14:58:26;-5983.75;;;17.00
74449;BMP280;62878;51.026;4.472;2022-09-28T15:01:06;-5988.13;;;17.26
74449;BMP280;62878;51.026;4.472;2022-09-28T15:03:38;-5985.94;;;17.13
74449;BMP280;62878;51.026;4.472;2022-09-28T15:06:05;-5985.78;;;17.12
74449;BMP280;62878;51.026;4.472;2022-09-28T15:08:37;-5988.13;;;17.26
74449;BMP280;62878;51.026;4.472;2022-09-28T15:11:03;-5987.78;;;17.24
74449;BMP280;62878;51.026;4.472;2022-09-28T15:13:30;-5977.94;;;16.65
74449;BMP280;62878;51.026;4.472;2022-09-28T15:16:03;-5988.13;;;17.26
74449;BMP280;62878;51.026;4.472;2022-09-28T15:21:37;-5986.44;;;17.16
74449;BMP280;62878;51.026;4.472;2022-09-28T15:25:01;-5987.78;;;17.24
74449;BMP280;62878;51.026;4.472;2022-09-28T15:27:34;-5976.34;;;16.56
74449;BMP280;62878;51.026;4.472;2022-09-28T15:30:01;-5986.19;;;17.15
74449;BMP280;62878;51.026;4.472;2022-09-28T15:32:35;-5986.28;;;17.15
74449;BMP280;62878;51.026;4.472;2022-09-28T15:35:13;-5987.47;;;17.22
74449;BMP280;62878;51.026;4.472;2022-09-28T15:37:49;-5986.13;;;17.14
74449;BMP280;62878;51.026;4.472;2022-09-28T15:40:18;-5984.59;;;17.05
74449;BMP280;62878;51.026;4.472;2022-09-28T15:42:44;-5984.50;;;17.05
74449;BMP280;62878;51.026;4.472;2022-09-28T15:47:40;-5983.44;;;16.98
74449;BMP280;62878;51.026;4.472;2022-09-28T15:50:25;-5988.13;;;17.26
74449;BMP280;62878;51.026;4.472;2022-09-28T15:53:00;-5986.72;;;17.18
74449;BMP280;62878;51.026;4.472;2022-09-28T15:55:35;-5988.38;;;17.28
74449;BMP280;62878;51.026;4.472;2022-09-28T16:00:30;-5988.47;;;17.28
74449;BMP280;62878;51.026;4.472;2022-09-28T16:05:45;-5988.47;;;17.28
74449;BMP280;62878;51.026;4.472;2022-09-28T16:08:20;-5988.31;;;17.27
74449;BMP280;62878;51.026;4.472;2022-09-28T16:11:02;-5987.88;;;17.25
74449;BMP280;62878;51.026;4.472;2022-09-28T16:13:30;-5987.38;;;17.22
74449;BMP280;62878;51.026;4.472;2022-09-28T16:15:57;-5985.34;;;17.10
74449;BMP280;62878;51.026;4.472;2022-09-28T16:18:24;-5986.97;;;17.19
74449;BMP280;62878;51.026;4.472;2022-09-28T16:20:51;-5986.63;;;17.17
74449;BMP280;62878;51.026;4.472;2022-09-28T16:23:25;-5986.63;;;17.17
74449;BMP280;62878;51.026;4.472;2022-09-28T16:26:35;-5986.63;;;17.17
74449;BMP280;62878;51.026;4.472;2022-09-28T16:28:53;-5984.78;;;17.06
74449;BMP280;62878;51.026;4.472;2022-09-28T16:34:22;-5987.56;;;17.23
74449;BMP280;62878;51.026;4.472;2022-09-28T16:36:50;-5988.56;;;17.29
74449;BMP280;62878;51.026;4.472;2022-09-28T16:39:16;-5988.22;;;17.27
74449;BMP280;62878;51.026;4.472;2022-09-28T16:41:46;-5991.50;;;17.47
74449;BMP280;62878;51.026;4.472;2022-09-28T16:44:16;-5989.66;;;17.35
74449;BMP280;62878;51.026;4.472;2022-09-28T16:46:43;-5994.19;;;17.63
74449;BMP280;62878;51.026;4.472;2022-09-28T16:49:13;-5994.63;;;17.65
74449;BMP280;62878;51.026;4.472;2022-09-28T16:51:43;-5990.31;;;17.39
74449;BMP280;62878;51.026;4.472;2022-09-28T16:54:22;-5987.47;;;17.22
74449;BMP280;62878;51.026;4.472;2022-09-28T16:57:07;-5984.78;;;17.06
74449;BMP280;62878;51.026;4.472;2022-09-28T16:59:33;-5995.38;;;17.70